Time;durP1;ratioP1;P1;durP2;ratioP2;P2;SDS_P1;SDS_P2;PMS_P1;PMS_P2;Temp;Humidity;BMP_temperature;BMP_pressure;BME280_temperature;BME280_humidity;BME280_pressure;Samples;Min_cycle;Max_cycle;Signal;HPM_P1;HPM_P2
2022/06/25 00:01:09;;;;;;;18.55;16.75;;;19.30;99.90;;;;;;5030622;28;20052;-72
2022/06/25 00:03:34;;;;;;;22.35;16.95;;;19.40;99.90;;;;;;4992909;28;20049;-71
2022/06/25 00:06:00;;;;;;;18.90;16.90;;;19.30;99.90;;;;;;5028756;28;20034;-71
2022/06/25 00:08:26;;;;;;;19.17;17.23;;;19.30;99.90;;;;;;5026986;28;20052;-72
2022/06/25 00:10:52;;;;;;;22.38;20.08;;;19.30;99.90;;;;;;5028053;28;20468;-71
2022/06/25 00:13:18;;;;;;;20.48;18.48;;;19.20;99.90;;;;;;5026956;28;20045;-71
2022/06/25 00:15:44;;;;;;;19.25;17.27;;;19.20;99.90;;;;;;5027747;28;20056;-71
2022/06/25 00:18:11;;;;;;;20.95;18.77;;;19.20;99.90;;;;;;5029938;28;20112;-71
2022/06/25 00:20:37;;;;;;;22.95;20.52;;;19.10;99.90;;;;;;5028462;28;20099;-71
2022/06/25 00:23:03;;;;;;;23.25;20.85;;;19.30;99.90;;;;;;5026857;28;20517;-72
2022/06/25 00:25:29;;;;;;;23.75;21.38;;;19.10;99.90;;;;;;5027773;28;20037;-72
2022/06/25 00:27:55;;;;;;;24.05;21.65;;;19.10;99.90;;;;;;5026612;28;20038;-72
2022/06/25 00:30:21;;;;;;;24.10;21.70;;;19.10;99.90;;;;;;5026887;28;20092;-71
2022/06/25 00:32:46;;;;;;;26.02;23.40;;;19.10;99.90;;;;;;5027858;28;20452;-72
2022/06/25 00:35:12;;;;;;;26.25;23.27;;;19.10;99.90;;;;;;5026987;28;20173;-72
2022/06/25 00:37:38;;;;;;;26.90;22.77;;;19.00;99.90;;;;;;5027713;28;20690;-72
2022/06/25 00:40:04;;;;;;;25.98;23.17;;;19.00;99.90;;;;;;5027834;28;20120;-72
2022/06/25 00:42:30;;;;;;;26.65;23.95;;;19.00;99.90;;;;;;5024942;28;20045;-71
2022/06/25 00:44:56;;;;;;;26.25;23.23;;;18.90;99.90;;;;;;5027568;28;20037;-72
2022/06/25 00:47:22;;;;;;;25.55;22.88;;;18.90;99.90;;;;;;5008850;28;20049;-72
2022/06/25 00:49:48;;;;;;;26.40;23.70;;;18.90;99.90;;;;;;5026777;28;20115;-72
2022/06/25 00:52:17;;;;;;;27.55;24.65;;;19.00;99.90;;;;;;5027420;28;20049;-72
2022/06/25 00:54:48;;;;;;;25.92;23.20;;;18.90;99.90;;;;;;5027803;28;20390;-72
2022/06/25 00:57:24;;;;;;;26.58;23.88;;;19.30;99.90;;;;;;5024894;28;20057;-72
2022/06/25 00:59:51;;;;;;;26.35;23.52;;;18.90;99.90;;;;;;5028178;28;20184;-71
2022/06/25 01:02:20;;;;;;;26.77;23.98;;;18.80;99.90;;;;;;5028937;28;20053;-72
2022/06/25 01:04:47;;;;;;;26.27;23.48;;;18.80;99.90;;;;;;5027113;28;20095;-71
2022/06/25 01:07:12;;;;;;;25.70;23.00;;;18.90;99.90;;;;;;5027039;28;20033;-72
2022/06/25 01:09:40;;;;;;;25.60;22.88;;;18.80;99.90;;;;;;5027600;28;20477;-72
2022/06/25 01:12:06;;;;;;;25.67;21.48;;;18.80;99.90;;;;;;5025033;28;20099;-72
2022/06/25 01:14:32;;;;;;;23.92;21.17;;;18.80;99.90;;;;;;5007838;28;20046;-71
2022/06/25 01:16:58;;;;;;;23.55;20.77;;;18.80;99.90;;;;;;5027714;28;20117;-72
2022/06/25 01:19:24;;;;;;;23.13;20.63;;;18.80;99.90;;;;;;5026988;28;20120;-72
2022/06/25 01:21:50;;;;;;;24.23;21.63;;;18.80;99.90;;;;;;5027760;28;20061;-71
2022/06/25 01:24:16;;;;;;;23.48;20.98;;;18.80;99.90;;;;;;5028880;28;20056;-72
2022/06/25 01:26:41;;;;;;;23.90;21.00;;;18.90;99.90;;;;;;4999758;28;20109;-72
2022/06/25 01:29:09;;;;;;;23.02;20.13;;;18.90;99.90;;;;;;5027955;28;20484;-72
2022/06/25 01:31:36;;;;;;;22.75;20.45;;;18.90;99.90;;;;;;5026273;28;20068;-72
2022/06/25 01:34:03;;;;;;;23.25;20.83;;;18.90;99.90;;;;;;5011147;28;20597;-72
2022/06/25 01:36:28;;;;;;;21.70;19.42;;;18.80;99.90;;;;;;5009324;28;20117;-72
2022/06/25 01:38:54;;;;;;;21.60;19.30;;;19.20;99.90;;;;;;5025358;28;20125;-72
2022/06/25 01:41:20;;;;;;;20.83;18.50;;;18.90;99.90;;;;;;5030426;28;20045;-72
2022/06/25 01:43:46;;;;;;;20.60;18.40;;;18.80;99.90;;;;;;5028060;28;20445;-72
2022/06/25 01:46:13;;;;;;;19.73;17.63;;;18.90;99.90;;;;;;5030113;28;20077;-72
2022/06/25 01:48:38;;;;;;;19.95;17.85;;;18.90;99.90;;;;;;5031017;28;20054;-72
2022/06/25 01:51:04;;;;;;;20.80;18.67;;;18.90;99.90;;;;;;5031951;28;20132;-72
2022/06/25 01:53:30;;;;;;;19.08;17.13;;;18.90;99.90;;;;;;5032929;28;20077;-72
2022/06/25 01:56:11;;;;;;;21.58;17.23;;;18.80;99.90;;;;;;5169495;27;20541;-71
2022/06/25 01:58:37;;;;;;;18.85;16.85;;;18.80;99.90;;;;;;5126923;27;20049;-72
2022/06/25 02:01:04;;;;;;;19.17;17.17;;;18.80;99.90;;;;;;5146604;27;20491;-71
2022/06/25 02:03:30;;;;;;;20.75;18.55;;;18.80;99.90;;;;;;5124457;28;20468;-70
2022/06/25 02:05:58;;;;;;;20.33;18.00;;;18.70;99.90;;;;;;5126826;28;20081;-70
2022/06/25 02:08:33;;;;;;;19.50;17.52;;;18.70;99.90;;;;;;5141537;27;20483;-70
2022/06/25 02:11:01;;;;;;;18.83;16.88;;;18.50;99.90;;;;;;5146187;27;20460;-70
2022/06/25 02:13:26;;;;;;;19.48;16.13;;;18.50;99.90;;;;;;5146113;27;20035;-71
2022/06/25 02:15:53;;;;;;;19.42;17.35;;;18.50;99.90;;;;;;5127278;27;20046;-71
2022/06/25 02:18:19;;;;;;;18.63;16.45;;;18.50;99.90;;;;;;5146753;27;20038;-71
2022/06/25 02:20:45;;;;;;;17.27;15.40;;;18.40;99.90;;;;;;5146334;27;20038;-70
2022/06/25 02:23:12;;;;;;;17.80;16.05;;;18.50;99.90;;;;;;5148418;27;20035;-71
2022/06/25 02:25:38;;;;;;;19.58;17.13;;;18.50;99.90;;;;;;5123786;28;20437;-71
2022/06/25 02:28:04;;;;;;;17.42;15.52;;;18.30;99.90;;;;;;5118652;28;20055;-71
2022/06/25 02:30:30;;;;;;;18.48;16.58;;;18.30;99.90;;;;;;5144355;27;20039;-70
2022/06/25 02:32:56;;;;;;;17.63;15.93;;;18.40;99.90;;;;;;5146710;27;20125;-70
2022/06/25 02:35:22;;;;;;;17.98;16.17;;;18.20;99.90;;;;;;5127163;27;20134;-70
2022/06/25 02:37:47;;;;;;;16.92;15.18;;;18.30;99.90;;;;;;5146313;27;20507;-70
2022/06/25 02:40:13;;;;;;;21.75;16.25;;;18.30;99.90;;;;;;5146784;27;20467;-70
2022/06/25 02:42:39;;;;;;;17.33;15.43;;;18.30;99.90;;;;;;5124533;27;20047;-71
2022/06/25 02:45:06;;;;;;;16.67;14.98;;;18.30;99.90;;;;;;5124294;28;20044;-71
2022/06/25 02:47:32;;;;;;;16.58;14.88;;;18.30;99.90;;;;;;5125082;27;20042;-71
2022/06/25 02:49:58;;;;;;;18.20;15.35;;;18.30;99.90;;;;;;5126104;28;20487;-70
2022/06/25 02:52:24;;;;;;;18.42;14.23;;;18.30;99.90;;;;;;5144014;27;20042;-70
2022/06/25 02:54:50;;;;;;;16.60;14.50;;;18.30;99.90;;;;;;5146577;27;20051;-71
2022/06/25 03:00:02;;;;;;;15.50;13.88;;;18.30;99.90;;;;;;5134934;27;20498;-70
2022/06/25 03:02:28;;;;;;;17.35;14.68;;;18.30;99.90;;;;;;5123966;28;20082;-70
2022/06/25 03:04:54;;;;;;;16.45;14.30;;;18.30;99.90;;;;;;5132979;27;20604;-71
2022/06/25 03:07:20;;;;;;;17.67;13.43;;;18.30;99.90;;;;;;5133483;27;20081;-71
2022/06/25 03:09:46;;;;;;;15.48;13.88;;;18.40;99.90;;;;;;5132257;27;20059;-70
2022/06/25 03:12:12;;;;;;;16.35;14.15;;;18.30;99.90;;;;;;5111840;27;20090;-70
2022/06/25 03:14:38;;;;;;;15.57;13.98;;;18.30;99.90;;;;;;5113720;27;20047;-71
2022/06/25 03:17:04;;;;;;;15.55;13.80;;;18.30;99.90;;;;;;5131233;27;20160;-70
2022/06/25 03:19:29;;;;;;;15.27;13.63;;;18.30;99.90;;;;;;5131412;27;20058;-71
2022/06/25 03:21:55;;;;;;;18.30;14.57;;;18.20;99.90;;;;;;5092647;28;20035;-71
2022/06/25 03:24:21;;;;;;;14.90;12.77;;;18.10;99.90;;;;;;5112796;27;20395;-70
2022/06/25 03:26:47;;;;;;;15.35;13.70;;;18.10;99.90;;;;;;5114686;27;20052;-71
2022/06/25 03:29:12;;;;;;;15.13;13.60;;;18.00;99.90;;;;;;5132322;27;20043;-70
2022/06/25 03:31:39;;;;;;;16.13;13.48;;;18.00;99.90;;;;;;5131271;27;20035;-71
2022/06/25 03:34:05;;;;;;;15.02;13.02;;;18.10;99.90;;;;;;5133320;27;20066;-70
2022/06/25 03:36:32;;;;;;;14.00;12.50;;;18.00;99.90;;;;;;5109414;28;20051;-71
2022/06/25 03:38:58;;;;;;;14.25;12.85;;;18.10;99.90;;;;;;5123859;27;20448;-71
2022/06/25 03:41:32;;;;;;;15.07;13.32;;;18.20;99.90;;;;;;5131166;27;20061;-70
2022/06/25 03:43:58;;;;;;;13.80;12.50;;;18.00;99.90;;;;;;5131993;27;20039;-71
2022/06/25 03:46:24;;;;;;;13.60;12.20;;;18.10;99.90;;;;;;5132345;27;20852;-70
2022/06/25 03:48:50;;;;;;;13.90;12.50;;;18.20;99.90;;;;;;5133761;27;20035;-71
2022/06/25 03:51:16;;;;;;;13.98;11.82;;;18.30;99.90;;;;;;5110758;28;20503;-70
2022/06/25 03:53:41;;;;;;;13.48;12.07;;;18.10;99.90;;;;;;5119341;27;20043;-71
2022/06/25 03:56:07;;;;;;;12.30;11.05;;;18.00;99.90;;;;;;5130435;27;20051;-71
2022/06/25 03:58:33;;;;;;;12.52;11.23;;;18.30;99.90;;;;;;5116235;27;20120;-70
2022/06/25 04:00:58;;;;;;;13.30;11.85;;;18.00;99.90;;;;;;5125202;27;20092;-70
2022/06/25 04:03:24;;;;;;;13.77;11.40;;;18.10;99.90;;;;;;5130942;27;20049;-70
2022/06/25 04:05:50;;;;;;;12.13;10.82;;;18.10;99.90;;;;;;5112114;27;20474;-71
2022/06/25 04:08:15;;;;;;;12.00;10.80;;;18.00;99.90;;;;;;5094807;27;20433;-72
2022/06/25 04:10:42;;;;;;;12.95;10.88;;;18.00;99.90;;;;;;5109356;28;20067;-71
2022/06/25 04:13:08;;;;;;;12.13;10.93;;;18.00;99.90;;;;;;5108787;28;20051;-71
2022/06/25 04:15:35;;;;;;;12.13;10.48;;;18.00;99.90;;;;;;5105106;28;20130;-71
2022/06/25 04:18:01;;;;;;;11.63;10.43;;;18.00;99.90;;;;;;5107792;28;20104;-71
2022/06/25 04:20:27;;;;;;;11.25;10.15;;;18.00;99.90;;;;;;5126026;27;20039;-70
2022/06/25 04:22:53;;;;;;;12.00;10.68;;;18.00;99.90;;;;;;5130608;27;20043;-70
2022/06/25 04:25:19;;;;;;;12.02;10.07;;;18.00;99.90;;;;;;5126414;27;20039;-70
2022/06/25 04:30:29;;;;;;;11.93;10.73;;;18.00;99.90;;;;;;5124698;27;20047;-71
2022/06/25 04:32:54;;;;;;;10.93;9.70;;;17.90;99.90;;;;;;5130093;27;20046;-70
2022/06/25 04:35:20;;;;;;;11.57;10.40;;;18.10;99.90;;;;;;5130166;27;20051;-71
2022/06/25 04:37:46;;;;;;;11.63;10.43;;;18.20;99.90;;;;;;5129596;27;20114;-71
2022/06/25 04:40:12;;;;;;;12.13;10.77;;;17.80;99.90;;;;;;5114222;27;20514;-71
2022/06/25 04:42:38;;;;;;;12.43;11.13;;;17.80;99.90;;;;;;5128640;27;20038;-71
2022/06/25 04:45:04;;;;;;;12.07;10.80;;;17.80;99.90;;;;;;5129295;27;20462;-71
2022/06/25 04:47:29;;;;;;;12.30;11.00;;;17.80;99.90;;;;;;5122636;27;20039;-71
2022/06/25 04:49:55;;;;;;;12.27;11.07;;;17.80;99.90;;;;;;5091303;28;20043;-71
2022/06/25 04:52:20;;;;;;;11.60;10.40;;;17.90;99.90;;;;;;5109003;28;20042;-72
2022/06/25 04:54:46;;;;;;;12.95;11.27;;;17.80;99.90;;;;;;5109556;28;20134;-71
2022/06/25 04:57:12;;;;;;;11.45;10.02;;;18.00;99.90;;;;;;5123977;27;20054;-71
2022/06/25 04:59:37;;;;;;;11.50;9.10;;;17.90;99.90;;;;;;5132434;27;20152;-70
2022/06/25 05:02:03;;;;;;;11.52;9.82;;;17.90;99.90;;;;;;5129478;27;20099;-70
2022/06/25 05:04:29;;;;;;;10.73;9.20;;;17.90;99.90;;;;;;5129047;27;20035;-71
2022/06/25 05:06:54;;;;;;;10.43;9.27;;;17.90;99.90;;;;;;5129555;27;20154;-71
2022/06/25 05:09:20;;;;;;;11.23;9.88;;;18.00;99.90;;;;;;5129253;27;20047;-71
2022/06/25 05:11:46;;;;;;;10.02;9.02;;;18.00;99.90;;;;;;5105501;28;20638;-71
2022/06/25 05:14:11;;;;;;;13.10;10.27;;;18.50;99.90;;;;;;5108312;27;20075;-71
2022/06/25 05:16:37;;;;;;;11.95;9.50;;;18.10;99.90;;;;;;5127185;27;20042;-71
2022/06/25 05:19:03;;;;;;;10.38;9.20;;;18.20;99.90;;;;;;5130206;27;20577;-72
2022/06/25 05:21:28;;;;;;;12.07;9.75;;;18.10;99.90;;;;;;5107549;28;20092;-71
2022/06/25 05:23:54;;;;;;;10.55;9.45;;;18.10;99.90;;;;;;5109255;28;20118;-71
2022/06/25 05:26:19;;;;;;;10.55;9.45;;;18.10;99.90;;;;;;5108448;28;20043;-71
2022/06/25 05:28:45;;;;;;;10.30;9.07;;;18.10;99.90;;;;;;5125589;27;20480;-72
2022/06/25 05:31:11;;;;;;;10.63;8.77;;;18.20;99.90;;;;;;5129372;27;20039;-71
2022/06/25 05:33:36;;;;;;;12.25;8.77;;;18.20;99.90;;;;;;5129063;27;20050;-71
2022/06/25 05:36:02;;;;;;;11.50;9.60;;;18.30;99.90;;;;;;5110906;27;20050;-71
2022/06/25 05:38:28;;;;;;;11.75;9.70;;;18.30;99.90;;;;;;5128814;27;20414;-71
2022/06/25 05:40:54;;;;;;;10.38;9.23;;;18.30;99.90;;;;;;5111051;27;20047;-71
2022/06/25 05:43:19;;;;;;;10.38;8.82;;;19.10;99.90;;;;;;5127625;27;20058;-71
2022/06/25 05:45:45;;;;;;;12.82;9.63;;;18.40;99.90;;;;;;5128150;27;20129;-70
2022/06/25 05:48:11;;;;;;;12.38;9.38;;;18.40;99.90;;;;;;5128942;27;20417;-72
2022/06/25 05:50:36;;;;;;;12.57;9.18;;;18.40;99.90;;;;;;5129528;27;20046;-71
2022/06/25 05:53:02;;;;;;;11.27;9.20;;;18.40;99.90;;;;;;5127784;28;20507;-72
2022/06/25 05:55:28;;;;;;;11.45;8.48;;;18.50;99.90;;;;;;5128689;28;20051;-71
2022/06/25 05:57:54;;;;;;;12.80;9.27;;;18.50;99.90;;;;;;5122898;28;20071;-71
2022/06/25 06:00:19;;;;;;;10.88;9.07;;;18.50;99.90;;;;;;5130648;28;20082;-70
2022/06/25 06:02:46;;;;;;;9.63;8.43;;;18.60;99.90;;;;;;5128267;28;20043;-70
2022/06/25 06:05:11;;;;;;;10.55;8.98;;;18.60;99.90;;;;;;5127817;28;20043;-71
2022/06/25 06:07:37;;;;;;;12.35;9.00;;;18.60;99.90;;;;;;5117790;28;20084;-70
2022/06/25 06:10:04;;;;;;;11.07;8.43;;;18.70;99.90;;;;;;5127514;28;20063;-70
2022/06/25 06:12:30;;;;;;;11.38;8.60;;;18.70;99.90;;;;;;5127002;28;20047;-70
2022/06/25 06:14:56;;;;;;;10.02;8.32;;;18.70;99.90;;;;;;5129172;28;20046;-70
2022/06/25 06:17:22;;;;;;;15.68;9.20;;;18.80;99.90;;;;;;5128518;28;20051;-70
2022/06/25 06:19:48;;;;;;;12.88;8.27;;;18.90;99.90;;;;;;5110734;28;20047;-70
2022/06/25 06:22:13;;;;;;;12.98;8.00;;;19.40;99.90;;;;;;5128411;28;20065;-71
2022/06/25 06:24:39;;;;;;;11.45;8.07;;;19.00;99.90;;;;;;5128891;28;20043;-70
2022/06/25 06:27:05;;;;;;;14.00;8.65;;;19.00;99.90;;;;;;5107188;28;20145;-71
2022/06/25 06:29:31;;;;;;;11.70;8.18;;;19.10;99.90;;;;;;5108031;28;20432;-70
2022/06/25 06:31:56;;;;;;;10.00;8.15;;;19.10;99.90;;;;;;5118707;28;20110;-70
2022/06/25 06:34:22;;;;;;;11.25;8.02;;;19.10;99.90;;;;;;5128182;28;20126;-70
2022/06/25 06:36:48;;;;;;;12.25;7.70;;;19.60;99.90;;;;;;5127858;28;20863;-70
2022/06/25 06:39:13;;;;;;;11.77;7.90;;;19.20;99.90;;;;;;5129134;28;20094;-69
2022/06/25 06:41:39;;;;;;;12.57;8.00;;;19.60;99.90;;;;;;5127763;27;20053;-70
2022/06/25 06:44:05;;;;;;;11.45;8.13;;;19.70;99.90;;;;;;5114171;27;20486;-70
2022/06/25 06:46:31;;;;;;;12.40;7.72;;;19.40;99.90;;;;;;5132046;27;20131;-71
2022/06/25 06:48:56;;;;;;;8.73;7.45;;;19.50;99.90;;;;;;5132548;27;20045;-70
2022/06/25 06:51:22;;;;;;;10.68;7.45;;;19.40;99.90;;;;;;5114329;27;20043;-70
2022/06/25 06:53:48;;;;;;;9.82;7.50;;;19.50;99.90;;;;;;5131885;27;20035;-70
2022/06/25 06:56:13;;;;;;;11.25;7.28;;;19.50;99.90;;;;;;5131903;27;20050;-70
2022/06/25 06:58:39;;;;;;;10.90;7.22;;;19.60;99.90;;;;;;5130611;27;20053;-70
2022/06/25 07:01:04;;;;;;;17.23;7.65;;;19.70;99.90;;;;;;5134751;27;20043;-70
2022/06/25 07:03:30;;;;;;;10.73;7.07;;;19.70;99.90;;;;;;5098564;27;20483;-70
2022/06/25 07:05:56;;;;;;;9.50;6.78;;;19.80;99.90;;;;;;5134107;27;20069;-71
2022/06/25 07:08:22;;;;;;;9.55;6.25;;;19.80;99.90;;;;;;5127539;27;20043;-70
2022/06/25 07:10:48;;;;;;;8.52;6.90;;;19.90;99.90;;;;;;5120598;27;20039;-70
2022/06/25 07:13:13;;;;;;;8.70;6.55;;;19.90;99.90;;;;;;5117805;27;20036;-70
2022/06/25 07:15:39;;;;;;;9.95;6.00;;;19.90;99.90;;;;;;5101314;27;20454;-70
2022/06/25 07:18:06;;;;;;;8.38;5.88;;;20.00;99.90;;;;;;5121260;27;20088;-70
2022/06/25 07:20:32;;;;;;;8.93;6.03;;;20.00;99.90;;;;;;5131494;27;20391;-70
2022/06/25 07:22:57;;;;;;;7.95;6.00;;;20.10;99.90;;;;;;5131383;27;20058;-70
2022/06/25 07:25:23;;;;;;;8.85;5.78;;;20.10;99.90;;;;;;5131058;27;20031;-71
2022/06/25 07:27:49;;;;;;;8.90;5.40;;;20.10;99.90;;;;;;5104168;28;20349;-73
2022/06/25 07:30:15;;;;;;;9.77;5.40;;;20.30;99.90;;;;;;5091726;28;20044;-72
2022/06/25 07:32:40;;;;;;;10.75;6.15;;;20.40;99.90;;;;;;5110481;28;20052;-71
2022/06/25 07:35:06;;;;;;;8.00;5.68;;;20.40;99.90;;;;;;5111474;28;20048;-71
2022/06/25 07:37:32;;;;;;;6.43;5.10;;;20.50;99.90;;;;;;5110216;28;20092;-71
2022/06/25 07:39:58;;;;;;;8.43;5.68;;;20.50;99.90;;;;;;5112216;28;20043;-70
2022/06/25 07:42:24;;;;;;;10.00;5.10;;;20.50;99.90;;;;;;5110624;27;20067;-73
2022/06/25 07:44:49;;;;;;;9.15;5.22;;;20.60;99.90;;;;;;5109697;28;20043;-74
2022/06/25 07:47:15;;;;;;;7.30;4.65;;;20.60;99.90;;;;;;5092690;28;20120;-74
2022/06/25 07:52:26;;;;;;;8.35;4.60;;;20.70;99.90;;;;;;5108443;28;20369;-75
2022/06/25 07:54:52;;;;;;;7.35;4.55;;;20.80;99.90;;;;;;5092334;28;20051;-74
2022/06/25 07:57:18;;;;;;;7.85;4.45;;;20.80;99.90;;;;;;5110372;27;20055;-74
2022/06/25 07:59:43;;;;;;;7.47;4.32;;;20.90;99.90;;;;;;5131427;27;20045;-74
2022/06/25 08:02:09;;;;;;;6.53;4.10;;;21.00;99.90;;;;;;5119083;27;20040;-74
2022/06/25 08:04:35;;;;;;;8.70;4.50;;;21.00;99.90;;;;;;5121132;27;20070;-74
2022/06/25 08:07:00;;;;;;;5.70;3.35;;;21.10;99.90;;;;;;5130819;27;20074;-73
2022/06/25 08:09:26;;;;;;;5.18;3.40;;;21.20;99.90;;;;;;5130355;27;20078;-72
2022/06/25 08:11:52;;;;;;;5.45;3.40;;;21.10;99.90;;;;;;5128692;27;20042;-73
2022/06/25 08:14:18;;;;;;;7.22;3.30;;;21.20;99.90;;;;;;5130900;27;20035;-73
2022/06/25 08:16:44;;;;;;;7.05;3.60;;;21.40;99.90;;;;;;5130308;27;20035;-74
2022/06/25 08:19:09;;;;;;;4.63;2.83;;;21.50;99.90;;;;;;5130474;27;20046;-73
2022/06/25 08:21:35;;;;;;;8.15;3.30;;;21.60;99.90;;;;;;5130240;27;20548;-74
2022/06/25 08:24:01;;;;;;;7.07;3.40;;;21.70;99.90;;;;;;5130712;27;20122;-74
2022/06/25 08:26:26;;;;;;;5.45;3.30;;;21.80;99.90;;;;;;5129959;27;20470;-73
2022/06/25 08:28:52;;;;;;;6.93;3.40;;;21.90;99.90;;;;;;5130253;27;20057;-74
2022/06/25 08:31:18;;;;;;;5.72;3.00;;;22.00;99.90;;;;;;5130006;27;20114;-74
2022/06/25 08:33:44;;;;;;;6.50;3.22;;;22.20;99.90;;;;;;5108971;28;20509;-74
2022/06/25 08:36:10;;;;;;;5.13;2.70;;;22.30;99.90;;;;;;5109834;28;20047;-74
2022/06/25 08:38:36;;;;;;;6.28;2.80;;;22.50;99.90;;;;;;5119054;27;20036;-74
2022/06/25 08:41:02;;;;;;;6.10;3.17;;;22.50;99.90;;;;;;5123160;27;20047;-73
2022/06/25 08:43:29;;;;;;;7.40;2.72;;;22.60;99.90;;;;;;5109725;27;20058;-74
2022/06/25 08:45:55;;;;;;;6.47;2.90;;;22.70;99.90;;;;;;5122656;27;20344;-75
2022/06/25 08:48:23;;;;;;;11.93;3.13;;;22.70;99.90;;;;;;5130361;27;20043;-74
2022/06/25 08:50:50;;;;;;;4.68;2.80;;;22.80;99.90;;;;;;5129706;27;20039;-75
2022/06/25 08:53:17;;;;;;;4.95;2.72;;;22.80;99.90;;;;;;5129501;27;20039;-74
2022/06/25 08:55:45;;;;;;;6.80;2.47;;;22.70;99.90;;;;;;5111427;27;20062;-74
2022/06/25 08:58:12;;;;;;;6.57;2.70;;;22.70;99.90;;;;;;5110662;27;20039;-74
2022/06/25 09:00:40;;;;;;;5.63;2.50;;;22.60;99.90;;;;;;5111106;27;20046;-75
2022/06/25 09:03:07;;;;;;;4.85;2.70;;;22.50;99.90;;;;;;5129460;27;20052;-74
2022/06/25 09:05:35;;;;;;;6.43;2.83;;;22.60;99.90;;;;;;5111377;27;20483;-75
2022/06/25 09:08:05;;;;;;;5.18;2.40;;;22.50;99.90;;;;;;5130412;27;20062;-74
2022/06/25 09:10:31;;;;;;;5.07;2.50;;;22.50;99.90;;;;;;5130001;27;20050;-74
2022/06/25 09:12:59;;;;;;;5.15;2.38;;;22.50;99.90;;;;;;5128155;27;20088;-74
2022/06/25 09:15:29;;;;;;;5.95;2.40;;;22.70;99.90;;;;;;5129321;27;20047;-74
2022/06/25 09:17:55;;;;;;;5.80;2.60;;;22.80;99.90;;;;;;5129577;27;20039;-74
2022/06/25 09:20:22;;;;;;;7.32;2.83;;;23.00;99.90;;;;;;5132357;27;20053;-74
2022/06/25 09:22:57;;;;;;;4.85;2.70;;;23.20;99.90;;;;;;5129680;27;20401;-70
2022/06/25 09:25:24;;;;;;;8.90;2.53;;;23.20;99.90;;;;;;5105651;28;20403;-70
2022/06/25 09:27:50;;;;;;;3.10;1.92;;;23.30;99.90;;;;;;5100356;28;20122;-71
2022/06/25 09:30:19;;;;;;;6.75;2.45;;;23.20;99.90;;;;;;5108694;28;20149;-70
2022/06/25 09:32:57;;;;;;;5.53;2.15;;;23.10;99.90;;;;;;5089863;28;20054;-70
2022/06/25 09:35:32;;;;;;;4.47;2.00;;;23.30;99.90;;;;;;5089934;28;20101;-70
2022/06/25 09:38:06;;;;;;;6.60;2.13;;;23.40;99.90;;;;;;5108494;28;20139;-70
2022/06/25 09:40:33;;;;;;;12.20;2.60;;;23.60;99.90;;;;;;5108643;28;20053;-69
2022/06/25 09:43:08;;;;;;;6.90;2.30;;;23.60;99.90;;;;;;5106140;28;20036;-69
2022/06/25 09:45:36;;;;;;;4.55;2.00;;;23.70;99.90;;;;;;5107730;28;20127;-70
2022/06/25 09:48:02;;;;;;;5.45;2.40;;;23.90;99.90;;;;;;5107294;28;20047;-70
2022/06/25 09:50:28;;;;;;;4.68;2.17;;;24.00;99.90;;;;;;5107376;28;20035;-70
2022/06/25 09:53:01;;;;;;;5.85;2.17;;;24.20;99.90;;;;;;5108441;28;20047;-70
2022/06/25 09:55:37;;;;;;;4.70;2.25;;;24.60;99.90;;;;;;5090132;28;20069;-70
2022/06/25 09:58:03;;;;;;;4.00;1.92;;;24.90;99.90;;;;;;5114464;28;20043;-70
2022/06/25 10:00:30;;;;;;;3.92;1.90;;;24.90;99.90;;;;;;5110582;28;20043;-70
2022/06/25 10:02:58;;;;;;;4.18;1.80;;;25.30;99.90;;;;;;5128288;28;20412;-70
2022/06/25 10:05:37;;;;;;;3.78;1.70;;;25.50;99.90;;;;;;5128692;28;20399;-70
2022/06/25 10:08:07;;;;;;;4.43;2.13;;;25.70;99.90;;;;;;5128641;28;20450;-71
2022/06/25 10:10:48;;;;;;;4.47;2.10;;;25.60;99.90;;;;;;5128511;28;20368;-70
2022/06/25 10:13:14;;;;;;;5.30;1.90;;;25.50;99.90;;;;;;5108381;28;20043;-71
2022/06/25 10:15:40;;;;;;;3.47;2.00;;;25.50;99.90;;;;;;5128796;27;20437;-70
2022/06/25 10:18:10;;;;;;;4.97;1.90;;;26.00;99.90;;;;;;5113675;27;20043;-70
2022/06/25 10:20:37;;;;;;;3.65;1.90;;;26.60;99.90;;;;;;5133138;27;20426;-70
2022/06/25 10:23:06;;;;;;;4.60;2.00;;;26.70;99.90;;;;;;5132828;27;20141;-70
2022/06/25 10:25:32;;;;;;;4.75;1.70;;;26.80;99.90;;;;;;5132007;27;20031;-71
2022/06/25 10:28:28;;;;;;;3.38;1.50;;;27.20;99.90;;;;;;5131512;27;20058;-70
2022/06/25 10:30:57;;;;;;;4.63;1.70;;;27.50;99.90;;;;;;5122285;27;20047;-70
2022/06/25 10:33:30;;;;;;;2.92;1.70;;;27.30;99.90;;;;;;5131793;27;20047;-71
2022/06/25 10:35:58;;;;;;;3.47;1.60;;;27.10;99.90;;;;;;5114423;27;20066;-70
2022/06/25 10:38:26;;;;;;;2.78;1.60;;;26.20;99.90;;;;;;5131058;27;20126;-71
2022/06/25 10:40:56;;;;;;;4.72;1.90;;;26.70;99.90;;;;;;5132848;27;20047;-70
2022/06/25 10:43:45;;;;;;;2.95;1.60;;;26.90;99.90;;;;;;5112110;27;20414;-70
2022/06/25 10:46:30;;;;;;;4.53;1.58;;;27.10;99.90;;;;;;5131812;27;20109;-70
2022/06/25 10:49:06;;;;;;;3.03;1.55;;;27.50;99.90;;;;;;5133829;27;20047;-70
2022/06/25 10:51:38;;;;;;;5.15;1.80;;;27.20;99.90;;;;;;5132182;27;20410;-71
2022/06/25 10:54:06;;;;;;;3.00;1.52;;;27.00;99.90;;;;;;5131598;27;20452;-71
2022/06/25 10:56:43;;;;;;;2.92;1.50;;;26.70;99.90;;;;;;5111988;27;20047;-70
2022/06/25 10:59:09;;;;;;;3.83;1.70;;;26.40;99.90;;;;;;5114641;27;20039;-70
2022/06/25 11:01:35;;;;;;;4.55;1.80;;;26.10;99.90;;;;;;5111380;28;20262;-70
2022/06/25 11:04:03;;;;;;;5.18;1.90;;;25.80;99.90;;;;;;5092884;28;20043;-70
2022/06/25 11:06:35;;;;;;;4.65;1.60;;;25.40;99.90;;;;;;5110093;28;20036;-70
2022/06/25 11:09:13;;;;;;;2.95;1.70;;;25.10;99.90;;;;;;5111515;28;20062;-70
2022/06/25 11:11:40;;;;;;;4.57;1.70;;;25.00;99.90;;;;;;5109703;28;20048;-70
2022/06/25 11:14:20;;;;;;;3.60;1.70;;;24.60;99.90;;;;;;5110155;28;20127;-70
2022/06/25 11:16:46;;;;;;;9.48;2.10;;;24.40;99.90;;;;;;5110574;28;20364;-70
2022/06/25 11:19:12;;;;;;;4.97;1.80;;;24.20;99.90;;;;;;5111397;28;20044;-70
2022/06/25 11:21:40;;;;;;;5.57;1.73;;;24.00;99.90;;;;;;5091251;28;20046;-70
2022/06/25 11:24:13;;;;;;;3.75;1.70;;;23.90;99.90;;;;;;5111115;28;20123;-69
2022/06/25 11:29:34;;;;;;;3.08;1.83;;;23.70;99.90;;;;;;5110531;28;20047;-70
2022/06/25 11:32:00;;;;;;;4.85;2.03;;;23.60;99.90;;;;;;5123306;27;20484;-70
2022/06/25 11:34:28;;;;;;;5.70;1.90;;;23.50;99.90;;;;;;5131461;27;20042;-74
2022/06/25 11:36:58;;;;;;;5.07;1.80;;;23.40;99.90;;;;;;5131146;27;20070;-74
2022/06/25 11:39:24;;;;;;;3.10;1.80;;;23.40;99.90;;;;;;5131830;27;20039;-74
2022/06/25 11:41:51;;;;;;;5.40;2.10;;;23.20;99.90;;;;;;5106783;28;20036;-74
2022/06/25 11:44:18;;;;;;;4.00;1.70;;;23.20;99.90;;;;;;5127091;27;20084;-75
2022/06/25 11:46:45;;;;;;;4.15;2.00;;;23.20;99.90;;;;;;5109325;28;20047;-74
2022/06/25 11:49:12;;;;;;;4.88;1.90;;;23.00;99.90;;;;;;5110063;28;20407;-74
2022/06/25 11:51:46;;;;;;;5.18;2.20;;;23.10;99.90;;;;;;5110460;28;20043;-74
2022/06/25 11:54:12;;;;;;;4.00;1.83;;;23.20;99.90;;;;;;5131445;27;20515;-74
2022/06/25 11:56:45;;;;;;;5.20;2.00;;;23.50;99.90;;;;;;5129474;27;20089;-74
2022/06/25 11:59:10;;;;;;;4.82;1.88;;;24.20;99.90;;;;;;5124863;27;20047;-76
2022/06/25 12:01:36;;;;;;;3.22;1.63;;;25.70;99.90;;;;;;5130398;27;20451;-73
2022/06/25 12:04:03;;;;;;;3.28;1.70;;;26.40;99.90;;;;;;5129637;27;20043;-72
2022/06/25 12:06:29;;;;;;;3.63;1.42;;;26.40;99.90;;;;;;5107029;28;20091;-72
2022/06/25 12:08:55;;;;;;;3.67;1.60;;;26.20;99.90;;;;;;5110187;28;20063;-71
2022/06/25 12:11:21;;;;;;;3.65;1.60;;;25.80;99.90;;;;;;5108906;28;20104;-71
2022/06/25 12:13:46;;;;;;;4.18;1.50;;;25.40;99.90;;;;;;5109228;28;20464;-71
2022/06/25 12:16:12;;;;;;;4.10;1.63;;;25.10;99.90;;;;;;5109798;28;20039;-72
2022/06/25 12:18:41;;;;;;;6.22;1.60;;;24.70;99.90;;;;;;5075128;28;20054;-72
2022/06/25 12:21:09;;;;;;;2.95;1.60;;;24.50;99.90;;;;;;5110704;28;20061;-71
2022/06/25 12:23:57;;;;;;;4.07;1.45;;;24.20;99.90;;;;;;5111345;28;20108;-71
2022/06/25 12:26:28;;;;;;;4.60;1.40;;;24.10;99.90;;;;;;5109700;28;20200;-71
2022/06/25 12:29:14;;;;;;;3.60;1.55;;;24.00;99.90;;;;;;5109982;28;20073;-71
2022/06/25 12:31:42;;;;;;;2.58;1.50;;;23.90;99.90;;;;;;5109250;28;20425;-72
2022/06/25 12:34:08;;;;;;;3.53;1.70;;;23.60;99.90;;;;;;5109705;28;20417;-71
2022/06/25 12:36:36;;;;;;;3.75;1.80;;;23.30;99.90;;;;;;5108917;28;20139;-71
2022/06/25 12:39:23;;;;;;;4.50;1.92;;;23.10;99.90;;;;;;5108340;28;20043;-71
2022/06/25 12:41:49;;;;;;;7.55;2.10;;;23.00;99.90;;;;;;5107396;28;20055;-71
2022/06/25 12:44:15;;;;;;;4.35;2.05;;;23.00;99.90;;;;;;5109980;28;20040;-71
2022/06/25 12:46:41;;;;;;;3.97;2.20;;;22.80;99.90;;;;;;5110700;27;20373;-71
2022/06/25 12:49:09;;;;;;;4.75;2.20;;;22.80;99.90;;;;;;5132443;27;20031;-71